createdAt,value
2019-02-28T00:01:39.307Z,3.61
2019-02-28T00:04:10.030Z,3.50
2019-02-28T00:06:40.379Z,3.70
2019-02-28T00:09:12.144Z,3.70
2019-02-28T00:11:42.434Z,3.77
2019-02-28T00:14:12.757Z,3.53
2019-02-28T00:16:43.225Z,3.44
2019-02-28T00:19:13.372Z,3.38
2019-02-28T00:21:43.542Z,3.30
2019-02-28T00:24:13.741Z,3.40
2019-02-28T00:26:47.541Z,3.42
2019-02-28T00:29:15.929Z,3.45
2019-02-28T00:31:49.463Z,3.49
2019-02-28T00:34:18.038Z,3.37
2019-02-28T00:36:50.307Z,3.50
2019-02-28T00:39:20.447Z,3.81
2019-02-28T00:41:50.706Z,3.62
2019-02-28T00:44:20.892Z,3.40
2019-02-28T00:46:51.115Z,3.34
2019-02-28T00:49:24.494Z,3.48
2019-02-28T00:51:53.429Z,3.37
2019-02-28T00:54:23.666Z,3.44
2019-02-28T00:56:53.877Z,3.83
2019-02-28T00:59:24.265Z,3.56
2019-02-28T01:01:54.463Z,3.51
2019-02-28T01:04:25.769Z,3.55
2019-02-28T01:06:55.963Z,3.64
2019-02-28T01:09:27.143Z,3.59
2019-02-28T01:11:58.389Z,3.50
2019-02-28T01:14:28.594Z,3.56
2019-02-28T01:16:58.857Z,3.30
2019-02-28T01:19:29.075Z,3.41
2019-02-28T01:21:59.303Z,3.62
2019-02-28T01:24:34.483Z,3.59
2019-02-28T01:27:01.537Z,3.80
2019-02-28T01:29:32.914Z,3.91
2019-02-28T01:32:03.621Z,4.13
2019-02-28T01:34:33.843Z,3.90
2019-02-28T01:37:04.066Z,3.92
2019-02-28T01:39:34.244Z,4.10
2019-02-28T01:42:04.763Z,4.56
2019-02-28T01:44:35.842Z,4.39
2019-02-28T01:47:06.863Z,4.06
2019-02-28T01:49:37.059Z,3.89
2019-02-28T01:52:10.190Z,3.70
2019-02-28T01:54:39.172Z,3.60
2019-02-28T01:57:10.063Z,3.79
2019-02-28T01:59:40.545Z,3.91
2019-02-28T02:02:10.730Z,3.87
2019-02-28T02:04:43.240Z,3.69
2019-02-28T02:07:13.327Z,3.44
2019-02-28T02:09:46.313Z,3.64
2019-02-28T02:12:15.443Z,3.48
2019-02-28T02:14:45.821Z,3.13
2019-02-28T02:17:16.101Z,3.32
2019-02-28T02:19:49.388Z,3.61
2019-02-28T02:22:18.229Z,3.99
2019-02-28T02:24:48.455Z,4.47
2019-02-28T02:27:19.475Z,5.14
2019-02-28T02:29:50.850Z,4.93
2019-02-28T02:32:21.180Z,5.68
2019-02-28T02:34:51.455Z,5.85
2019-02-28T02:37:21.749Z,6.30
2019-02-28T02:39:52.016Z,6.69
2019-02-28T02:42:22.248Z,5.89
2019-02-28T02:44:52.461Z,7.04
2019-02-28T02:47:22.673Z,7.69
2019-02-28T02:49:57.423Z,7.56
2019-02-28T02:52:29.963Z,7.56
2019-02-28T02:54:56.983Z,7.00
2019-02-28T02:57:27.163Z,7.80
2019-02-28T02:59:58.468Z,8.12
2019-02-28T03:02:33.170Z,7.77
2019-02-28T03:05:01.993Z,8.07
2019-02-28T03:07:32.390Z,8.27
2019-02-28T03:10:02.613Z,8.10
2019-02-28T03:12:34.288Z,8.03
2019-02-28T03:15:04.679Z,8.36
2019-02-28T03:17:35.841Z,8.15
2019-02-28T03:20:07.951Z,8.11
2019-02-28T03:22:38.664Z,8.05
2019-02-28T03:25:10.017Z,8.15
2019-02-28T03:27:40.175Z,8.16
2019-02-28T03:30:26.496Z,8.42
2019-02-28T03:32:44.813Z,8.27
2019-02-28T03:35:15.082Z,8.21
2019-02-28T03:37:45.284Z,8.23
2019-02-28T03:40:15.587Z,8.00
2019-02-28T03:42:45.784Z,8.16
2019-02-28T03:45:16.245Z,8.19
2019-02-28T03:47:48.128Z,8.09
2019-02-28T03:50:21.865Z,8.23
2019-02-28T03:52:50.454Z,8.17
2019-02-28T03:55:20.785Z,8.11
2019-02-28T03:57:50.987Z,8.06
2019-02-28T04:00:21.271Z,8.03
2019-02-28T04:02:56.917Z,8.18
2019-02-28T04:05:28.070Z,8.31
2019-02-28T04:07:55.955Z,8.13
2019-02-28T04:10:26.136Z,8.31
2019-02-28T04:12:57.768Z,8.53
2019-02-28T04:15:27.989Z,8.41
2019-02-28T04:17:58.251Z,8.28
2019-02-28T04:20:36.118Z,8.59
2019-02-28T04:23:01.561Z,8.27
2019-02-28T04:25:31.763Z,8.44
2019-02-28T04:28:02.176Z,8.58
2019-02-28T04:30:34.381Z,8.57
2019-02-28T04:33:04.648Z,8.50
2019-02-28T04:35:34.819Z,8.41
2019-02-28T04:38:05.100Z,8.47
2019-02-28T04:40:35.305Z,8.40
2019-02-28T04:43:07.236Z,8.41
2019-02-28T04:45:37.746Z,8.30
2019-02-28T04:48:07.946Z,8.27
2019-02-28T04:50:38.266Z,8.29
2019-02-28T04:53:08.545Z,8.51
2019-02-28T04:55:38.790Z,8.35
2019-02-28T04:58:09.022Z,8.40
2019-02-28T05:00:39.260Z,8.31
2019-02-28T05:03:09.548Z,8.48
2019-02-28T05:05:40.221Z,8.30
2019-02-28T05:08:10.523Z,8.28
2019-02-28T05:10:40.705Z,8.40
2019-02-28T05:13:11.448Z,8.46
2019-02-28T05:15:43.214Z,8.41
2019-02-28T05:18:13.394Z,8.42
2019-02-28T05:20:45.962Z,8.41
2019-02-28T05:23:15.704Z,8.49
2019-02-28T05:25:45.907Z,8.56
2019-02-28T05:28:16.186Z,8.56
2019-02-28T05:30:46.505Z,8.52
2019-02-28T05:33:16.726Z,8.53
2019-02-28T05:35:47.121Z,8.44
2019-02-28T05:38:20.757Z,8.59
2019-02-28T05:40:49.392Z,8.52
2019-02-28T05:43:19.620Z,8.45
2019-02-28T05:45:49.886Z,8.44
2019-02-28T05:48:20.175Z,8.44
2019-02-28T05:50:53.337Z,8.48
2019-02-28T05:53:22.304Z,8.54
2019-02-28T05:55:52.584Z,8.52
2019-02-28T05:58:22.732Z,8.47
2019-02-28T06:00:53.033Z,8.40
2019-02-28T06:03:23.233Z,8.40
2019-02-28T06:05:53.735Z,8.33
2019-02-28T06:08:24.470Z,8.45
2019-02-28T06:10:56.069Z,8.43
2019-02-28T06:13:26.739Z,8.48
2019-02-28T06:15:58.229Z,8.45
2019-02-28T06:18:32.669Z,8.43
2019-02-28T06:21:00.793Z,8.49
2019-02-28T06:23:31.135Z,8.53
2019-02-28T06:26:01.477Z,8.55
2019-02-28T06:28:32.024Z,8.52
2019-02-28T06:31:02.242Z,8.53
2019-02-28T06:33:33.689Z,8.58
2019-02-28T06:36:05.465Z,8.67
2019-02-28T06:38:35.738Z,8.55
2019-02-28T06:41:07.607Z,8.55
2019-02-28T06:43:38.102Z,8.64
2019-02-28T06:46:09.490Z,8.66
2019-02-28T06:48:39.773Z,8.61
2019-02-28T06:51:10.533Z,8.67
2019-02-28T06:53:41.971Z,8.74
2019-02-28T06:56:12.168Z,8.74
2019-02-28T06:58:42.402Z,8.66
2019-02-28T07:01:12.754Z,8.82
2019-02-28T07:03:53.142Z,8.90
2019-02-28T07:06:17.905Z,8.95
2019-02-28T07:08:48.173Z,8.89
2019-02-28T07:11:19.922Z,9.06
2019-02-28T07:13:50.439Z,9.08
2019-02-28T07:16:21.032Z,8.97
2019-02-28T07:18:53.831Z,9.20
2019-02-28T07:21:24.040Z,9.21
2019-02-28T07:23:54.320Z,9.59
2019-02-28T07:26:24.619Z,9.34
2019-02-28T07:28:54.854Z,11.16
2019-02-28T07:31:25.543Z,13.60
2019-02-28T07:33:57.573Z,13.89
2019-02-28T07:36:27.826Z,14.11
2019-02-28T07:39:01.227Z,13.62
2019-02-28T07:41:33.925Z,14.13
2019-02-28T07:44:04.467Z,14.19
2019-02-28T07:46:34.661Z,14.73
2019-02-28T07:49:04.929Z,13.58
2019-02-28T07:51:35.188Z,13.65
2019-02-28T07:54:05.370Z,14.12
2019-02-28T07:56:42.742Z,14.89
2019-02-28T07:59:08.372Z,14.52
2019-02-28T08:01:38.584Z,15.18
2019-02-28T08:04:08.808Z,14.00
2019-02-28T08:06:40.425Z,15.29
2019-02-28T08:09:26.848Z,14.57
2019-02-28T08:11:57.262Z,13.96
2019-02-28T08:14:27.696Z,14.90
2019-02-28T08:16:57.921Z,15.29
2019-02-28T08:19:28.324Z,14.47
2019-02-28T08:21:58.612Z,14.82
2019-02-28T08:24:28.850Z,14.46
2019-02-28T08:26:59.265Z,14.44
2019-02-28T08:29:29.446Z,14.50
2019-02-28T08:31:59.678Z,15.55
2019-02-28T08:34:29.874Z,15.96
2019-02-28T08:37:00.339Z,14.72
2019-02-28T08:39:31.098Z,15.23
2019-02-28T08:42:04.550Z,15.41
2019-02-28T08:44:37.390Z,15.71
2019-02-28T08:47:07.884Z,14.79
2019-02-28T08:49:44.686Z,16.49
2019-02-28T08:52:12.141Z,16.39
2019-02-28T08:54:46.909Z,14.56
2019-02-28T08:57:17.226Z,14.75
2019-02-28T08:59:52.513Z,15.07
2019-02-28T09:02:22.571Z,15.18
2019-02-28T09:04:53.491Z,14.55
2019-02-28T09:07:24.158Z,15.57
2019-02-28T09:09:54.581Z,15.18
2019-02-28T09:12:24.856Z,15.33
2019-02-28T09:14:56.201Z,15.45
2019-02-28T09:17:26.621Z,15.02
2019-02-28T09:19:56.839Z,15.13
2019-02-28T09:22:28.059Z,15.44
2019-02-28T09:25:13.846Z,15.22
2019-02-28T09:27:45.435Z,14.88
2019-02-28T09:30:31.297Z,16.23
2019-02-28T09:33:01.568Z,16.07
2019-02-28T09:35:31.972Z,14.75
2019-02-28T09:38:06.361Z,14.73
2019-02-28T09:40:36.375Z,15.75
2019-02-28T09:43:06.622Z,15.08
2019-02-28T09:45:40.021Z,15.22
2019-02-28T09:48:10.140Z,14.91
2019-02-28T09:50:40.850Z,15.60
2019-02-28T09:53:15.513Z,15.77
2019-02-28T09:55:45.882Z,15.73
2019-02-28T09:58:16.617Z,15.61
2019-02-28T10:00:50.198Z,15.76
2019-02-28T10:03:19.536Z,15.20
2019-02-28T10:05:51.091Z,15.01
2019-02-28T10:08:26.167Z,15.80
2019-02-28T10:10:58.096Z,14.96
2019-02-28T10:13:28.583Z,15.08
2019-02-28T10:15:58.926Z,14.86
2019-02-28T10:18:29.372Z,15.54
2019-02-28T10:21:01.890Z,15.34
2019-02-28T10:23:31.640Z,15.98
2019-02-28T10:26:03.512Z,15.43
2019-02-28T10:28:33.842Z,15.12
2019-02-28T10:31:04.086Z,15.43
2019-02-28T10:33:34.308Z,16.33
2019-02-28T10:36:04.598Z,15.40
2019-02-28T10:38:35.641Z,14.64
2019-02-28T10:41:13.108Z,15.36
2019-02-28T10:43:54.815Z,14.92
2019-02-28T10:46:32.103Z,14.89
2019-02-28T10:49:12.849Z,14.57
2019-02-28T10:51:50.326Z,15.12
2019-02-28T10:54:26.651Z,16.14
2019-02-28T10:57:06.058Z,15.35
2019-02-28T10:59:42.213Z,15.07
2019-02-28T11:02:20.042Z,15.22
2019-02-28T11:04:57.050Z,14.70
2019-02-28T11:07:34.242Z,15.60
2019-02-28T11:10:16.279Z,15.00
2019-02-28T11:12:57.938Z,15.21
2019-02-28T11:15:36.934Z,15.47
2019-02-28T11:18:13.344Z,15.50
2019-02-28T11:20:52.988Z,15.51
2019-02-28T11:23:31.914Z,14.72
2019-02-28T11:26:10.481Z,15.79
2019-02-28T11:28:50.980Z,15.99
2019-02-28T11:31:29.693Z,15.94
2019-02-28T11:34:11.605Z,16.05
2019-02-28T11:36:52.216Z,15.58
2019-02-28T11:39:33.732Z,15.78
2019-02-28T11:42:12.121Z,15.83
2019-02-28T11:44:52.794Z,15.08
2019-02-28T11:47:32.334Z,15.18
2019-02-28T11:50:10.821Z,15.10
2019-02-28T11:52:46.605Z,15.75
2019-02-28T11:55:20.330Z,16.08
2019-02-28T11:57:53.259Z,15.93
2019-02-28T12:00:29.063Z,15.62
2019-02-28T12:03:00.910Z,15.94
2019-02-28T12:05:32.236Z,16.16
2019-02-28T12:08:09.301Z,15.90
2019-02-28T12:10:36.432Z,15.06
2019-02-28T12:13:06.678Z,15.15
2019-02-28T12:15:38.229Z,15.09
2019-02-28T12:18:09.152Z,15.55
2019-02-28T12:20:39.703Z,15.58
2019-02-28T12:23:10.403Z,15.22
2019-02-28T12:25:42.768Z,15.21
2019-02-28T12:28:13.028Z,15.61
2019-02-28T12:30:43.358Z,15.27
2019-02-28T12:33:15.375Z,14.79
2019-02-28T12:35:46.780Z,14.76
2019-02-28T12:38:17.090Z,14.64
2019-02-28T12:40:49.463Z,14.40
2019-02-28T12:43:19.484Z,14.65
2019-02-28T12:45:49.916Z,14.61
2019-02-28T12:48:21.788Z,14.70
2019-02-28T12:50:52.263Z,14.85
2019-02-28T12:53:25.285Z,15.19
2019-02-28T12:55:55.978Z,15.30
2019-02-28T12:58:26.257Z,14.70
2019-02-28T13:01:00.050Z,15.23
2019-02-28T13:03:30.660Z,14.93
2019-02-28T13:06:01.150Z,14.90
2019-02-28T13:08:31.491Z,14.52
2019-02-28T13:11:04.326Z,14.84
2019-02-28T13:13:34.239Z,15.04
2019-02-28T13:16:04.478Z,15.32
2019-02-28T13:18:34.771Z,15.42
2019-02-28T13:21:06.220Z,15.01
2019-02-28T13:23:40.527Z,15.10
2019-02-28T13:26:10.935Z,15.11
2019-02-28T13:28:41.364Z,14.90
2019-02-28T13:31:50.072Z,14.94
2019-02-28T13:34:40.789Z,14.71
2019-02-28T13:37:28.526Z,15.02
2019-02-28T13:40:24.820Z,15.59
2019-02-28T13:43:24.190Z,15.26
2019-02-28T13:46:13.477Z,15.29
2019-02-28T13:49:21.187Z,15.57
2019-02-28T13:52:26.531Z,15.35
2019-02-28T13:55:18.951Z,15.45
2019-02-28T13:58:21.588Z,15.15
2019-02-28T14:01:30.608Z,15.04
2019-02-28T14:04:44.999Z,14.41
2019-02-28T14:07:53.420Z,14.55
2019-02-28T14:10:58.444Z,14.34
2019-02-28T14:16:49.626Z,14.30
2019-02-28T14:19:55.329Z,14.80
2019-02-28T14:22:45.826Z,14.64
2019-02-28T14:25:54.906Z,14.66
2019-02-28T14:29:13.877Z,14.49
2019-02-28T14:35:24.954Z,14.11
2019-02-28T14:38:36.842Z,13.97
2019-02-28T14:41:41.897Z,14.13
2019-02-28T14:44:47.326Z,14.09
2019-02-28T14:47:56.875Z,14.33
2019-02-28T14:51:19.072Z,14.32
2019-02-28T14:54:16.345Z,14.09
2019-02-28T14:57:13.345Z,14.38
2019-02-28T15:00:38.974Z,14.40
2019-02-28T15:03:40.637Z,14.29
2019-02-28T15:06:12.883Z,14.11
2019-02-28T15:08:43.331Z,13.92
2019-02-28T15:11:13.834Z,14.10
2019-02-28T15:13:44.352Z,14.05
2019-02-28T15:16:26.561Z,14.10
2019-02-28T15:18:56.943Z,13.99
2019-02-28T15:21:27.266Z,14.18
2019-02-28T15:23:57.673Z,14.08
2019-02-28T15:26:29.564Z,14.11
2019-02-28T15:29:00.719Z,13.72
2019-02-28T15:31:31.173Z,13.38
2019-02-28T15:34:05.501Z,13.36
2019-02-28T15:36:34.525Z,13.21
2019-02-28T15:39:06.238Z,13.44
2019-02-28T15:41:37.742Z,13.18
2019-02-28T15:44:08.663Z,13.20
2019-02-28T15:46:39.770Z,13.31
2019-02-28T15:49:10.980Z,13.14
2019-02-28T15:51:41.570Z,13.03
2019-02-28T15:54:11.872Z,12.99
2019-02-28T15:56:42.295Z,12.91
2019-02-28T15:59:14.787Z,12.84
2019-02-28T16:01:44.606Z,12.83
2019-02-28T16:04:14.957Z,12.71
2019-02-28T16:06:45.490Z,12.80
2019-02-28T16:09:18.759Z,12.76
2019-02-28T16:11:49.168Z,12.61
2019-02-28T16:14:19.531Z,12.76
2019-02-28T16:16:50.385Z,12.55
2019-02-28T16:19:21.940Z,12.48
2019-02-28T16:21:53.216Z,12.55
2019-02-28T16:24:23.654Z,12.42
2019-02-28T16:26:56.743Z,12.48
2019-02-28T16:29:26.389Z,12.45
2019-02-28T16:31:57.122Z,12.42
2019-02-28T16:34:27.596Z,12.30
2019-02-28T16:37:00.948Z,12.32
2019-02-28T16:39:29.787Z,12.19
2019-02-28T16:42:00.288Z,12.24
2019-02-28T16:44:31.818Z,12.29
2019-02-28T16:47:03.455Z,12.30
2019-02-28T16:49:33.693Z,12.13
2019-02-28T16:52:06.022Z,12.09
2019-02-28T16:54:36.167Z,12.03
2019-02-28T16:57:09.495Z,12.06
2019-02-28T16:59:42.785Z,11.94
2019-02-28T17:02:13.597Z,11.85
2019-02-28T17:04:44.074Z,12.00
2019-02-28T17:07:15.197Z,11.79
2019-02-28T17:09:45.510Z,11.72
2019-02-28T17:12:36.206Z,11.80
2019-02-28T17:15:13.390Z,11.80
2019-02-28T17:17:51.412Z,11.67
2019-02-28T17:20:21.819Z,11.59
2019-02-28T17:22:52.414Z,11.71
2019-02-28T17:25:22.819Z,11.45
2019-02-28T17:28:12.293Z,11.51
2019-02-28T17:30:56.047Z,11.40
2019-02-28T17:33:26.383Z,11.43
2019-02-28T17:35:59.144Z,11.42
2019-02-28T17:38:32.293Z,11.29
2019-02-28T17:41:03.628Z,11.30
2019-02-28T17:43:36.902Z,11.42
2019-02-28T17:46:08.225Z,11.16
2019-02-28T17:48:59.707Z,11.31
2019-02-28T17:51:59.306Z,11.23
2019-02-28T17:55:08.852Z,11.34
2019-02-28T17:58:16.318Z,11.22
2019-02-28T18:01:32.664Z,11.12
2019-02-28T18:05:03.801Z,11.13
2019-02-28T18:08:02.119Z,10.91
2019-02-28T18:11:17.961Z,11.00
2019-02-28T18:14:11.179Z,11.06
2019-02-28T18:17:26.430Z,10.83
2019-02-28T18:20:20.904Z,10.77
2019-02-28T18:23:21.265Z,10.99
2019-02-28T18:26:13.258Z,10.83
2019-02-28T18:29:09.234Z,10.61
2019-02-28T18:31:41.985Z,10.60
2019-02-28T18:34:21.925Z,10.80
2019-02-28T18:36:54.559Z,10.50
2019-02-28T18:39:25.472Z,10.51
2019-02-28T18:41:55.860Z,10.41
2019-02-28T18:44:26.828Z,10.40
2019-02-28T18:46:58.197Z,10.35
2019-02-28T18:49:29.422Z,10.46
2019-02-28T18:52:01.607Z,10.28
2019-02-28T18:54:31.996Z,10.16
2019-02-28T18:57:04.550Z,10.23
2019-02-28T18:59:36.593Z,10.21
2019-02-28T19:02:07.309Z,10.11
2019-02-28T19:04:38.206Z,10.10
2019-02-28T19:07:08.491Z,10.07
2019-02-28T19:09:40.425Z,10.03
2019-02-28T19:12:11.459Z,10.10
2019-02-28T19:14:42.421Z,10.06
2019-02-28T19:17:13.777Z,9.97
2019-02-28T19:19:45.185Z,9.97
2019-02-28T19:22:16.018Z,9.91
2019-02-28T19:25:16.917Z,9.97
2019-02-28T19:27:47.390Z,10.08
2019-02-28T19:30:18.060Z,10.07
2019-02-28T19:32:48.383Z,10.04
2019-02-28T19:35:18.789Z,10.19
2019-02-28T19:37:49.963Z,9.96
2019-02-28T19:40:20.288Z,10.16
2019-02-28T19:42:50.738Z,9.88
2019-02-28T19:45:24.355Z,9.76
2019-02-28T19:47:54.659Z,9.95
2019-02-28T19:50:24.912Z,9.82
2019-02-28T19:52:55.412Z,9.57
2019-02-28T19:55:26.987Z,9.51
2019-02-28T19:57:57.322Z,9.30
2019-02-28T20:00:27.868Z,9.28
2019-02-28T20:02:58.090Z,9.32
2019-02-28T20:05:28.647Z,9.41
2019-02-28T20:07:59.183Z,9.27
2019-02-28T20:10:29.608Z,9.25
2019-02-28T20:13:01.711Z,9.38
2019-02-28T20:15:34.266Z,9.20
2019-02-28T20:18:04.697Z,9.38
2019-02-28T20:20:35.135Z,9.24
2019-02-28T20:23:06.199Z,9.12
2019-02-28T20:25:36.759Z,9.31
2019-02-28T20:28:07.038Z,9.33
2019-02-28T20:30:37.385Z,9.48
2019-02-28T20:33:07.737Z,9.62
2019-02-28T20:35:38.055Z,9.21
2019-02-28T20:38:08.725Z,9.20
2019-02-28T20:40:39.185Z,9.22
2019-02-28T20:43:09.631Z,9.19
2019-02-28T20:45:41.165Z,9.06
2019-02-28T20:48:11.581Z,8.99
2019-02-28T20:50:42.605Z,8.97
2019-02-28T20:53:12.849Z,9.06
2019-02-28T20:55:43.317Z,9.06
2019-02-28T20:58:13.695Z,8.76
2019-02-28T21:00:44.882Z,8.83
2019-02-28T21:03:15.312Z,8.73
2019-02-28T21:05:45.629Z,8.71
2019-02-28T21:08:15.956Z,8.58
2019-02-28T21:10:46.782Z,8.66
2019-02-28T21:13:22.013Z,8.72
2019-02-28T21:15:52.298Z,8.71
2019-02-28T21:18:22.652Z,8.79
2019-02-28T21:20:53.018Z,9.08
2019-02-28T21:23:23.702Z,8.97
2019-02-28T21:25:54.126Z,8.84
2019-02-28T21:28:25.679Z,8.67
2019-02-28T21:30:57.776Z,8.74
2019-02-28T21:33:29.114Z,8.68
2019-02-28T21:36:00.701Z,8.61
2019-02-28T21:38:35.881Z,8.85
2019-02-28T21:41:09.329Z,8.53
2019-02-28T21:43:40.788Z,8.58
2019-02-28T21:46:29.449Z,8.62
2019-02-28T21:48:59.862Z,8.60
2019-02-28T21:51:31.095Z,8.55
2019-02-28T21:54:01.677Z,8.71
2019-02-28T21:56:33.470Z,8.50
2019-02-28T21:59:06.567Z,8.74
2019-02-28T22:01:36.953Z,8.32
2019-02-28T22:04:08.532Z,8.47
2019-02-28T22:06:42.654Z,8.45
2019-02-28T22:09:14.207Z,8.48
2019-02-28T22:11:46.134Z,8.45
2019-02-28T22:14:16.728Z,8.80
2019-02-28T22:16:46.995Z,8.64
2019-02-28T22:19:17.244Z,8.83
2019-02-28T22:21:47.576Z,8.83
2019-02-28T22:24:18.033Z,8.78
2019-02-28T22:26:49.319Z,8.73
2019-02-28T22:29:19.632Z,7.68
2019-02-28T22:32:07.936Z,7.58
2019-02-28T22:35:03.201Z,8.04
2019-02-28T22:37:33.647Z,8.52
2019-02-28T22:40:04.110Z,8.70
2019-02-28T22:42:35.466Z,8.41
2019-02-28T22:45:06.411Z,8.31
2019-02-28T22:47:37.094Z,8.15
2019-02-28T22:50:07.790Z,8.12
2019-02-28T22:52:38.283Z,7.84
2019-02-28T22:55:08.899Z,7.77
2019-02-28T22:57:39.149Z,7.83
2019-02-28T23:00:22.099Z,7.84
2019-02-28T23:03:18.994Z,7.90
2019-02-28T23:05:49.533Z,7.83
2019-02-28T23:08:19.841Z,7.92
2019-02-28T23:10:50.128Z,7.90
2019-02-28T23:13:20.475Z,7.83
2019-02-28T23:15:50.702Z,7.92
2019-02-28T23:18:20.943Z,7.87
2019-02-28T23:20:51.221Z,8.03
2019-02-28T23:23:21.481Z,8.01
2019-02-28T23:25:52.123Z,8.08
2019-02-28T23:28:30.787Z,8.06
2019-02-28T23:31:35.635Z,8.12
2019-02-28T23:34:11.727Z,8.10
2019-02-28T23:36:42.053Z,8.32
2019-02-28T23:39:12.297Z,8.14
2019-02-28T23:41:42.689Z,8.26
2019-02-28T23:44:13.173Z,8.27
2019-02-28T23:46:43.428Z,8.28
2019-02-28T23:49:13.656Z,8.23
2019-02-28T23:51:44.966Z,8.21
2019-02-28T23:54:15.250Z,8.23
2019-02-28T23:56:45.473Z,8.43
2019-02-28T23:59:15.859Z,8.34
